createdAt,value
2019-05-11T00:00:16.951Z,99.90
2019-05-11T00:02:48.166Z,99.90
2019-05-11T00:05:18.314Z,99.90
2019-05-11T00:07:58.890Z,99.90
2019-05-11T00:10:30.285Z,99.90
2019-05-11T00:13:02.203Z,99.90
2019-05-11T00:15:35.155Z,99.90
2019-05-11T00:18:06.921Z,99.90
2019-05-11T00:20:35.406Z,99.90
2019-05-11T00:23:09.921Z,99.90
2019-05-11T00:25:41.109Z,99.90
2019-05-11T00:28:09.582Z,99.90
2019-05-11T00:30:38.084Z,99.90
2019-05-11T00:33:09.242Z,99.90
2019-05-11T00:35:37.721Z,99.90
2019-05-11T00:38:08.883Z,99.90
2019-05-11T00:40:39.864Z,99.90
2019-05-11T00:43:09.969Z,99.90
2019-05-11T00:45:41.928Z,99.90
2019-05-11T00:48:13.328Z,99.90
2019-05-11T00:50:44.974Z,99.90
2019-05-11T00:53:16.352Z,99.90
2019-05-11T00:55:47.562Z,99.90
2019-05-11T00:58:21.036Z,99.90
2019-05-11T01:00:51.562Z,99.90
2019-05-11T01:04:05.586Z,99.90
2019-05-11T01:06:40.087Z,99.90
2019-05-11T01:09:12.189Z,99.90
2019-05-11T01:11:40.637Z,99.90
2019-05-11T01:14:17.580Z,99.90
2019-05-11T01:16:46.077Z,99.90
2019-05-11T01:19:17.785Z,99.90
2019-05-11T01:21:48.929Z,99.90
2019-05-11T01:24:22.244Z,99.90
2019-05-11T01:26:52.335Z,99.90
2019-05-11T01:29:25.148Z,99.90
2019-05-11T01:31:53.620Z,99.90
2019-05-11T01:34:29.208Z,99.90
2019-05-11T01:37:00.539Z,99.90
2019-05-11T01:39:34.436Z,99.90
2019-05-11T01:42:05.823Z,99.90
2019-05-11T01:44:37.813Z,99.90
2019-05-11T01:47:06.332Z,99.90
2019-05-11T01:49:38.291Z,99.90
2019-05-11T01:52:09.526Z,99.90
2019-05-11T01:54:46.609Z,99.90
2019-05-11T01:57:15.075Z,99.90
2019-05-11T01:59:50.920Z,99.90
2019-05-11T02:02:22.375Z,99.90
2019-05-11T02:05:11.754Z,99.90
2019-05-11T02:07:42.824Z,99.90
2019-05-11T02:10:11.650Z,99.90
2019-05-11T02:12:40.234Z,99.90
2019-05-11T02:15:08.637Z,99.90
2019-05-11T02:17:38.697Z,99.90
2019-05-11T02:20:09.061Z,99.90
2019-05-11T02:22:38.789Z,99.90
2019-05-11T02:25:07.938Z,99.90
2019-05-11T02:27:40.070Z,99.90
2019-05-11T02:30:15.258Z,99.90
2019-05-11T02:32:52.003Z,99.90
2019-05-11T02:35:20.423Z,99.90
2019-05-11T02:37:54.831Z,99.90
2019-05-11T02:40:29.413Z,99.90
2019-05-11T02:43:00.804Z,99.90
2019-05-11T02:45:34.982Z,99.90
2019-05-11T02:48:03.405Z,99.90
2019-05-11T02:50:34.003Z,99.90
2019-05-11T02:53:06.239Z,99.90
2019-05-11T02:55:45.516Z,99.90
2019-05-11T02:58:19.195Z,99.90
2019-05-11T03:00:53.322Z,99.90
2019-05-11T03:03:23.460Z,99.90
2019-05-11T03:06:00.348Z,99.90
2019-05-11T03:08:43.628Z,99.90
2019-05-11T03:11:15.385Z,99.90
2019-05-11T03:13:43.804Z,99.90
2019-05-11T03:16:12.230Z,99.90
2019-05-11T03:18:42.273Z,99.90
2019-05-11T03:21:16.273Z,99.90
2019-05-11T03:23:50.652Z,99.90
2019-05-11T03:26:23.876Z,99.90
2019-05-11T03:28:55.008Z,99.90
2019-05-11T03:31:28.915Z,99.90
2019-05-11T03:33:58.868Z,99.90
2019-05-11T03:36:27.282Z,99.90
2019-05-11T03:39:00.308Z,99.90
2019-05-11T03:41:37.705Z,99.90
2019-05-11T03:44:09.071Z,99.90
2019-05-11T03:46:40.383Z,99.90
2019-05-11T03:49:08.797Z,99.90
2019-05-11T03:51:37.509Z,99.90
2019-05-11T03:54:17.633Z,99.90
2019-05-11T03:56:46.050Z,99.90
2019-05-11T03:59:17.365Z,99.90
2019-05-11T04:01:47.423Z,99.90
2019-05-11T04:04:16.743Z,99.90
2019-05-11T04:06:45.424Z,99.90
2019-05-11T04:09:18.182Z,99.90
2019-05-11T04:11:49.580Z,99.90
2019-05-11T04:14:37.386Z,99.90
2019-05-11T04:17:05.826Z,99.90
2019-05-11T04:19:36.994Z,99.90
2019-05-11T04:22:08.351Z,99.90
2019-05-11T04:24:38.784Z,99.90
2019-05-11T04:27:06.916Z,99.90
2019-05-11T04:29:35.343Z,99.90
2019-05-11T04:32:03.749Z,99.90
2019-05-11T04:34:34.940Z,99.90
2019-05-11T04:37:06.064Z,99.90
2019-05-11T04:39:38.378Z,99.90
2019-05-11T04:42:18.408Z,99.90
2019-05-11T04:44:52.765Z,99.90
2019-05-11T04:47:33.790Z,99.90
2019-05-11T04:50:02.304Z,99.90
2019-05-11T04:52:33.477Z,99.90
2019-05-11T04:55:04.654Z,99.90
2019-05-11T04:57:33.070Z,99.90
2019-05-11T05:00:01.544Z,99.90
2019-05-11T05:02:31.676Z,99.90
2019-05-11T05:05:04.387Z,99.90
2019-05-11T05:07:48.158Z,99.90
2019-05-11T05:10:13.955Z,99.90
2019-05-11T05:12:39.548Z,99.90
2019-05-11T05:15:08.118Z,99.90
2019-05-11T05:17:39.669Z,99.90
2019-05-11T05:20:11.466Z,99.90
2019-05-11T05:22:45.049Z,99.90
2019-05-11T05:25:19.393Z,99.90
2019-05-11T05:27:48.137Z,99.90
2019-05-11T05:30:18.170Z,99.90
2019-05-11T05:32:49.540Z,99.90
2019-05-11T05:35:39.352Z,99.90
2019-05-11T05:38:07.774Z,99.90
2019-05-11T05:40:39.197Z,99.90
2019-05-11T05:43:25.589Z,99.90
2019-05-11T05:45:43.717Z,99.90
2019-05-11T05:48:12.162Z,99.90
2019-05-11T05:50:45.130Z,99.90
2019-05-11T05:53:22.020Z,99.90
2019-05-11T05:55:53.613Z,99.90
2019-05-11T05:58:28.061Z,99.90
2019-05-11T06:00:57.883Z,99.90
2019-05-11T06:03:35.561Z,99.90
2019-05-11T06:06:10.204Z,99.90
2019-05-11T06:08:38.628Z,99.90
2019-05-11T06:11:12.941Z,99.90
2019-05-11T06:13:45.817Z,99.90
2019-05-11T06:16:15.965Z,99.90
2019-05-11T06:18:44.368Z,99.90
2019-05-11T06:21:14.547Z,99.90
2019-05-11T06:23:43.066Z,99.90
2019-05-11T06:26:11.483Z,99.90
2019-05-11T06:28:42.946Z,99.90
2019-05-11T06:31:13.657Z,99.90
2019-05-11T06:33:46.524Z,99.90
2019-05-11T06:36:14.946Z,99.90
2019-05-11T06:38:55.103Z,99.90
2019-05-11T06:41:23.521Z,99.90
2019-05-11T06:44:01.222Z,99.90
2019-05-11T06:46:25.201Z,99.90
2019-05-11T06:48:56.365Z,99.90
2019-05-11T06:51:27.766Z,99.90
2019-05-11T06:53:56.236Z,99.90
2019-05-11T06:56:28.606Z,99.90
2019-05-11T06:58:59.699Z,99.90
2019-05-11T07:01:28.126Z,99.90
2019-05-11T07:03:56.612Z,99.90
2019-05-11T07:06:30.312Z,99.90
2019-05-11T07:08:58.395Z,99.90
2019-05-11T07:11:29.840Z,99.90
2019-05-11T07:14:18.652Z,99.90
2019-05-11T07:16:33.104Z,99.90
2019-05-11T07:19:10.834Z,99.90
2019-05-11T07:21:39.312Z,99.90
2019-05-11T07:24:10.762Z,99.90
2019-05-11T07:26:40.720Z,99.90
2019-05-11T07:29:09.138Z,99.90
2019-05-11T07:31:37.590Z,99.90
2019-05-11T07:34:09.285Z,99.90
2019-05-11T07:36:40.748Z,99.90
2019-05-11T07:39:11.696Z,99.90
2019-05-11T07:41:43.585Z,99.90
2019-05-11T07:45:05.810Z,99.90
2019-05-11T07:47:37.942Z,99.90
2019-05-11T07:50:12.916Z,99.90
2019-05-11T07:52:54.602Z,99.90
2019-05-11T07:55:29.489Z,99.90
2019-05-11T07:58:04.021Z,99.90
2019-05-11T08:00:49.551Z,99.90
2019-05-11T08:03:23.076Z,99.90
2019-05-11T08:05:51.554Z,99.90
2019-05-11T08:08:24.798Z,99.90
2019-05-11T08:10:50.130Z,99.90
2019-05-11T08:13:18.605Z,99.90
2019-05-11T08:15:48.814Z,99.90
2019-05-11T08:18:18.944Z,99.90
2019-05-11T08:20:47.949Z,99.90
2019-05-11T08:23:18.034Z,99.90
2019-05-11T08:25:48.591Z,99.90
2019-05-11T08:28:19.536Z,99.90
2019-05-11T08:31:04.390Z,99.90
2019-05-11T08:33:32.865Z,99.90
2019-05-11T08:36:01.361Z,99.90
2019-05-11T08:38:31.418Z,99.90
2019-05-11T08:40:59.840Z,99.90
2019-05-11T08:43:30.961Z,99.90
2019-05-11T08:45:59.689Z,99.90
2019-05-11T08:48:32.474Z,99.90
2019-05-11T08:51:01.060Z,99.90
2019-05-11T08:53:29.591Z,99.90
2019-05-11T08:55:58.785Z,99.90
2019-05-11T08:58:37.988Z,99.90
2019-05-11T09:01:09.411Z,99.90
2019-05-11T09:03:39.468Z,99.90
2019-05-11T09:06:12.478Z,99.90
2019-05-11T09:09:09.009Z,99.90
2019-05-11T09:11:39.907Z,99.90
2019-05-11T09:14:08.689Z,99.90
2019-05-11T09:16:38.357Z,99.90
2019-05-11T09:19:09.008Z,99.90
2019-05-11T09:21:38.360Z,99.90
2019-05-11T09:24:08.468Z,99.90
2019-05-11T09:26:42.735Z,99.90
2019-05-11T09:29:11.154Z,99.90
2019-05-11T09:31:42.430Z,99.90
2019-05-11T09:34:13.922Z,99.90
2019-05-11T09:36:45.181Z,99.90
2019-05-11T09:39:19.192Z,99.90
2019-05-11T09:41:58.630Z,99.90
2019-05-11T09:44:30.058Z,99.90
2019-05-11T09:47:01.942Z,99.90
2019-05-11T09:49:43.997Z,99.90
2019-05-11T09:52:07.727Z,99.90
2019-05-11T09:54:40.316Z,99.90
2019-05-11T09:57:11.402Z,99.90
2019-05-11T09:59:39.808Z,99.90
2019-05-11T10:02:08.235Z,99.90
2019-05-11T10:04:38.025Z,99.90
2019-05-11T10:07:17.949Z,99.90
2019-05-11T10:09:50.341Z,99.90
2019-05-11T10:12:21.210Z,99.90
2019-05-11T10:14:52.349Z,99.90
2019-05-11T10:17:22.357Z,99.90
2019-05-11T10:19:53.733Z,99.90
2019-05-11T10:22:25.112Z,99.90
2019-05-11T10:24:53.524Z,99.90
2019-05-11T10:27:22.005Z,99.90
2019-05-11T10:29:52.642Z,99.90
2019-05-11T10:32:30.041Z,99.90
2019-05-11T10:34:58.555Z,99.90
2019-05-11T10:37:32.716Z,99.90
2019-05-11T10:40:09.595Z,99.90
2019-05-11T10:42:40.176Z,99.90
2019-05-11T10:45:09.348Z,99.90
2019-05-11T10:48:00.974Z,99.90
2019-05-11T10:50:30.191Z,99.90
2019-05-11T10:52:59.158Z,99.90
2019-05-11T10:55:29.255Z,99.90
2019-05-11T10:57:59.317Z,99.90
2019-05-11T11:00:30.102Z,99.90
2019-05-11T11:03:04.066Z,99.90
2019-05-11T11:05:32.481Z,99.90
2019-05-11T11:08:00.924Z,99.90
2019-05-11T11:10:31.828Z,99.90
2019-05-11T11:13:03.028Z,99.90
2019-05-11T11:15:38.109Z,99.90
2019-05-11T11:18:21.054Z,99.90
2019-05-11T11:20:50.737Z,99.90
2019-05-11T11:23:42.928Z,99.90
2019-05-11T11:26:13.998Z,99.90
2019-05-11T11:28:44.062Z,99.90
2019-05-11T11:31:12.484Z,99.90
2019-05-11T11:33:48.873Z,99.90
2019-05-11T11:36:19.025Z,99.90
2019-05-11T11:38:50.148Z,99.90
2019-05-11T11:41:18.897Z,99.90
2019-05-11T11:43:48.327Z,99.90
2019-05-11T11:46:19.786Z,99.90
2019-05-11T11:48:48.914Z,99.90
2019-05-11T11:51:20.784Z,99.90
2019-05-11T11:53:51.649Z,99.90
2019-05-11T11:56:23.880Z,99.90
2019-05-11T11:58:54.799Z,99.90
2019-05-11T12:01:23.510Z,99.90
2019-05-11T12:03:54.792Z,99.90
2019-05-11T12:06:24.855Z,99.50
2019-05-11T12:09:00.039Z,99.10
2019-05-11T12:11:32.756Z,98.00
2019-05-11T12:14:04.247Z,99.90
2019-05-11T12:16:32.930Z,98.80
2019-05-11T12:19:08.345Z,97.70
2019-05-11T12:21:37.923Z,98.70
2019-05-11T12:24:12.781Z,97.20
2019-05-11T12:26:41.482Z,96.40
2019-05-11T12:29:18.879Z,96.30
2019-05-11T12:31:48.520Z,96.90
2019-05-11T12:34:17.917Z,97.70
2019-05-11T12:36:51.146Z,97.70
2019-05-11T12:39:19.574Z,98.00
2019-05-11T12:41:51.036Z,98.00
2019-05-11T12:44:19.808Z,97.80
2019-05-11T12:47:18.456Z,98.90
2019-05-11T12:49:34.720Z,98.00
2019-05-11T12:52:03.153Z,98.10
2019-05-11T12:54:38.377Z,96.90
2019-05-11T12:57:07.857Z,98.10
2019-05-11T12:59:39.265Z,97.00
2019-05-11T13:02:10.666Z,96.60
2019-05-11T13:04:40.105Z,97.00
2019-05-11T13:07:10.147Z,96.60
2019-05-11T13:09:38.574Z,95.80
2019-05-11T13:12:19.145Z,96.60
2019-05-11T13:15:01.871Z,95.90
2019-05-11T13:17:40.053Z,95.40
2019-05-11T13:20:12.792Z,95.80
2019-05-11T13:22:42.909Z,95.20
2019-05-11T13:25:14.625Z,95.30
2019-05-11T13:27:44.691Z,96.00
2019-05-11T13:30:13.172Z,95.00
2019-05-11T13:32:43.244Z,94.30
2019-05-11T13:35:11.741Z,94.70
2019-05-11T13:37:41.861Z,93.90
2019-05-11T13:40:11.226Z,94.50
2019-05-11T13:42:45.567Z,93.90
2019-05-11T13:45:19.666Z,94.00
2019-05-11T13:47:55.541Z,94.50
2019-05-11T13:50:23.452Z,94.50
2019-05-11T13:52:54.844Z,94.40
2019-05-11T13:55:23.267Z,93.60
2019-05-11T13:57:57.714Z,94.10
2019-05-11T14:00:28.867Z,94.70
2019-05-11T14:02:59.201Z,94.60
2019-05-11T14:05:30.541Z,94.60
2019-05-11T14:08:02.069Z,95.60
2019-05-11T14:10:38.210Z,96.40
2019-05-11T14:13:12.100Z,96.30
2019-05-11T14:15:40.524Z,95.30
2019-05-11T14:18:18.377Z,94.80
2019-05-11T14:20:50.256Z,94.20
2019-05-11T14:23:29.127Z,93.60
2019-05-11T14:25:57.653Z,94.10
2019-05-11T14:28:29.241Z,95.00
2019-05-11T14:30:57.931Z,95.50
2019-05-11T14:33:28.230Z,95.70
2019-05-11T14:35:59.533Z,97.10
2019-05-11T14:38:33.721Z,97.10
2019-05-11T14:41:02.257Z,95.70
2019-05-11T14:43:30.695Z,95.20
2019-05-11T14:45:59.129Z,94.90
2019-05-11T14:48:30.188Z,93.50
2019-05-11T14:50:59.315Z,91.30
2019-05-11T14:53:37.833Z,92.10
2019-05-11T14:56:08.077Z,91.80
2019-05-11T14:58:39.006Z,91.60
2019-05-11T15:01:09.349Z,92.20
2019-05-11T15:03:52.098Z,91.80
2019-05-11T15:06:27.970Z,92.50
2019-05-11T15:09:01.493Z,93.00
2019-05-11T15:11:32.689Z,93.20
2019-05-11T15:14:08.120Z,94.00
2019-05-11T15:16:39.756Z,93.60
2019-05-11T15:19:08.443Z,93.80
2019-05-11T15:21:38.715Z,94.50
2019-05-11T15:24:08.988Z,94.60
2019-05-11T15:26:48.942Z,94.80
2019-05-11T15:29:18.482Z,94.90
2019-05-11T15:31:48.921Z,94.90
2019-05-11T15:34:18.482Z,95.50
2019-05-11T15:36:49.009Z,95.80
2019-05-11T15:39:19.108Z,95.50
2019-05-11T15:41:49.210Z,96.00
2019-05-11T15:44:20.633Z,96.30
2019-05-11T15:46:49.060Z,96.70
2019-05-11T15:49:18.089Z,96.80
2019-05-11T15:51:48.916Z,96.80
2019-05-11T15:54:19.788Z,97.00
2019-05-11T15:56:48.440Z,97.40
2019-05-11T15:59:22.684Z,97.50
2019-05-11T16:01:54.611Z,97.60
2019-05-11T16:04:24.597Z,98.10
2019-05-11T16:07:00.134Z,98.10
2019-05-11T16:09:31.741Z,98.50
2019-05-11T16:12:03.361Z,98.90
2019-05-11T16:14:34.550Z,99.50
2019-05-11T16:17:02.968Z,99.00
2019-05-11T16:19:31.381Z,99.10
2019-05-11T16:22:05.406Z,98.90
2019-05-11T16:24:39.824Z,99.20
2019-05-11T16:27:08.780Z,99.40
2019-05-11T16:29:38.654Z,99.30
2019-05-11T16:32:13.021Z,99.60
2019-05-11T16:34:41.434Z,99.70
2019-05-11T16:37:12.558Z,99.90
2019-05-11T16:39:50.024Z,99.90
2019-05-11T16:42:21.138Z,99.90
2019-05-11T16:44:49.559Z,99.90
2019-05-11T16:47:18.246Z,99.60
2019-05-11T16:49:49.225Z,99.90
2019-05-11T16:52:28.002Z,99.90
2019-05-11T16:55:02.143Z,99.90
2019-05-11T16:57:32.212Z,99.90
2019-05-11T17:00:08.829Z,99.90
2019-05-11T17:02:38.224Z,99.90
2019-05-11T17:05:25.955Z,99.90
2019-05-11T17:07:58.830Z,99.90
2019-05-11T17:10:32.978Z,99.90
2019-05-11T17:13:03.979Z,99.90
2019-05-11T17:15:35.532Z,99.90
2019-05-11T17:18:08.030Z,99.90
2019-05-11T17:20:39.822Z,99.90
2019-05-11T17:23:11.842Z,99.90
2019-05-11T17:25:40.248Z,99.90
2019-05-11T17:28:10.123Z,99.90
2019-05-11T17:30:41.639Z,99.90
2019-05-11T17:33:10.082Z,99.90
2019-05-11T17:35:38.770Z,99.90
2019-05-11T17:38:07.966Z,99.90
2019-05-11T17:40:37.805Z,99.90
2019-05-11T17:43:09.844Z,99.90
2019-05-11T17:45:38.245Z,99.90
2019-05-11T17:48:08.668Z,99.90
2019-05-11T17:50:39.561Z,99.90
2019-05-11T17:53:07.995Z,99.90
2019-05-11T17:55:42.602Z,99.90
2019-05-11T17:58:14.000Z,99.90
2019-05-11T18:00:48.550Z,99.90
2019-05-11T18:03:30.481Z,99.90
2019-05-11T18:06:00.858Z,99.90
2019-05-11T18:08:31.713Z,99.90
2019-05-11T18:11:01.765Z,99.90
2019-05-11T18:13:31.924Z,99.90
2019-05-11T18:16:01.990Z,99.90
2019-05-11T18:18:32.054Z,99.90
2019-05-11T18:21:00.465Z,99.90
2019-05-11T18:23:29.224Z,99.90
2019-05-11T18:26:03.407Z,99.90
2019-05-11T18:28:34.798Z,99.90
2019-05-11T18:31:06.260Z,99.90
2019-05-11T18:33:38.191Z,99.90
2019-05-11T18:36:08.033Z,99.90
2019-05-11T18:38:41.342Z,99.90
2019-05-11T18:41:15.426Z,99.90
2019-05-11T18:43:45.483Z,99.90
2019-05-11T18:46:18.550Z,99.90
2019-05-11T18:48:48.682Z,99.90
2019-05-11T18:51:17.194Z,99.90
2019-05-11T18:53:48.267Z,99.90
2019-05-11T18:56:19.754Z,99.90
2019-05-11T18:58:53.153Z,99.90
2019-05-11T19:01:24.268Z,99.90
2019-05-11T19:03:52.694Z,99.90
2019-05-11T19:06:22.683Z,99.90
2019-05-11T19:08:51.405Z,99.90
2019-05-11T19:11:19.821Z,99.90
2019-05-11T19:13:51.657Z,99.90
2019-05-11T19:16:28.802Z,99.90
2019-05-11T19:19:01.862Z,99.90
2019-05-11T19:21:35.876Z,99.90
2019-05-11T19:24:06.089Z,99.90
2019-05-11T19:26:34.466Z,99.90
2019-05-11T19:29:05.828Z,99.90
2019-05-11T19:31:39.259Z,99.90
2019-05-11T19:34:13.096Z,99.90
2019-05-11T19:36:44.358Z,99.90
2019-05-11T19:39:19.336Z,99.90
2019-05-11T19:41:48.041Z,99.90
2019-05-11T19:44:19.246Z,99.90
2019-05-11T19:46:52.062Z,99.90
2019-05-11T19:49:23.480Z,99.90
2019-05-11T19:51:57.777Z,99.90
2019-05-11T19:54:26.334Z,99.90
2019-05-11T19:56:54.737Z,99.90
2019-05-11T19:59:32.345Z,99.90
2019-05-11T20:02:03.771Z,99.90
2019-05-11T20:04:33.233Z,99.90
2019-05-11T20:07:04.589Z,99.90
2019-05-11T20:09:34.648Z,99.90
2019-05-11T20:12:06.922Z,99.90
2019-05-11T20:14:37.292Z,99.90
2019-05-11T20:17:08.930Z,99.90
2019-05-11T20:19:38.480Z,99.90
2019-05-11T20:22:15.515Z,99.90
2019-05-11T20:24:47.650Z,99.90
2019-05-11T20:27:18.463Z,99.90
2019-05-11T20:29:49.592Z,99.90
2019-05-11T20:32:18.710Z,99.90
2019-05-11T20:34:53.844Z,99.90
2019-05-11T20:37:28.826Z,99.90
2019-05-11T20:39:58.577Z,99.90
2019-05-11T20:42:27.258Z,99.90
2019-05-11T20:44:58.777Z,99.90
2019-05-11T20:47:29.906Z,99.90
2019-05-11T20:50:02.984Z,99.90
2019-05-11T20:52:33.046Z,99.90
2019-05-11T20:55:09.325Z,99.90
2019-05-11T20:57:42.085Z,99.90
2019-05-11T21:00:12.939Z,99.90
2019-05-11T21:02:48.433Z,99.90
2019-05-11T21:05:18.393Z,99.90
2019-05-11T21:07:50.036Z,99.90
2019-05-11T21:10:22.375Z,99.90
2019-05-11T21:12:53.768Z,99.90
2019-05-11T21:15:31.446Z,99.90
2019-05-11T21:17:59.858Z,99.90
2019-05-11T21:20:28.711Z,99.90
2019-05-11T21:22:58.061Z,99.90
2019-05-11T21:25:38.634Z,99.90
2019-05-11T21:28:14.536Z,99.90
2019-05-11T21:30:43.289Z,99.90
2019-05-11T21:33:11.737Z,99.90
2019-05-11T21:35:40.198Z,99.90
2019-05-11T21:38:09.021Z,99.90
2019-05-11T21:40:38.468Z,99.90
2019-05-11T21:43:08.775Z,99.90
2019-05-11T21:45:40.862Z,99.90
2019-05-11T21:48:09.421Z,99.90
2019-05-11T21:50:46.129Z,99.90
2019-05-11T21:53:14.578Z,99.90
2019-05-11T21:55:42.995Z,99.90
2019-05-11T21:58:19.466Z,99.90
2019-05-11T22:00:52.206Z,99.90
2019-05-11T22:03:22.254Z,99.90
2019-05-11T22:05:57.717Z,99.90
2019-05-11T22:08:22.450Z,99.90
2019-05-11T22:10:54.005Z,99.90
2019-05-11T22:13:25.125Z,99.90
2019-05-11T22:15:58.084Z,99.90
2019-05-11T22:18:30.835Z,99.90
2019-05-11T22:20:59.286Z,99.90
2019-05-11T22:23:28.148Z,99.90
2019-05-11T22:25:58.764Z,99.90
2019-05-11T22:28:28.466Z,99.90
2019-05-11T22:30:57.135Z,99.90
2019-05-11T22:33:34.232Z,99.90
2019-05-11T22:36:03.025Z,99.90
2019-05-11T22:38:33.109Z,99.90
2019-05-11T22:41:03.233Z,99.90
2019-05-11T22:43:37.964Z,99.90
2019-05-11T22:46:07.774Z,99.90
2019-05-11T22:48:38.128Z,99.90
2019-05-11T22:51:08.008Z,99.90
2019-05-11T22:53:44.927Z,99.90
2019-05-11T22:56:08.777Z,99.90
2019-05-11T22:58:37.193Z,99.90
2019-05-11T23:01:08.481Z,99.90
2019-05-11T23:03:40.002Z,99.90
2019-05-11T23:06:11.292Z,99.90
2019-05-11T23:08:41.350Z,99.90
2019-05-11T23:11:10.545Z,99.90
2019-05-11T23:13:40.689Z,99.90
2019-05-11T23:16:09.106Z,99.90
2019-05-11T23:18:45.176Z,99.90
2019-05-11T23:21:17.622Z,99.90
2019-05-11T23:23:49.154Z,99.90
2019-05-11T23:26:23.125Z,99.90
2019-05-11T23:28:51.570Z,99.90
2019-05-11T23:31:20.030Z,99.90
2019-05-11T23:33:51.374Z,99.90
2019-05-11T23:36:21.453Z,99.90
2019-05-11T23:38:52.275Z,99.90
2019-05-11T23:41:24.712Z,99.90
2019-05-11T23:43:50.842Z,99.90
2019-05-11T23:46:22.181Z,99.90
2019-05-11T23:48:50.674Z,99.90
2019-05-11T23:51:24.701Z,99.90
2019-05-11T23:53:54.762Z,99.90
2019-05-11T23:56:28.020Z,99.90
2019-05-11T23:59:04.657Z,99.90
